createdAt,value
2022-11-22T00:00:40.420Z,7.73
2022-11-22T00:03:07.577Z,7.43
2022-11-22T00:05:37.139Z,7.90
2022-11-22T00:08:04.142Z,8.10
2022-11-22T00:10:31.194Z,7.37
2022-11-22T00:12:57.992Z,7.20
2022-11-22T00:15:24.954Z,6.20
2022-11-22T00:17:51.795Z,7.10
2022-11-22T00:20:18.848Z,6.67
2022-11-22T00:22:45.732Z,5.53
2022-11-22T00:25:13.047Z,6.07
2022-11-22T00:27:40.313Z,5.93
2022-11-22T00:30:08.107Z,5.90
2022-11-22T00:32:34.980Z,5.83
2022-11-22T00:35:01.970Z,5.30
2022-11-22T00:37:29.090Z,4.80
2022-11-22T00:39:56.025Z,5.20
2022-11-22T00:42:22.813Z,5.47
2022-11-22T00:44:49.939Z,5.53
2022-11-22T00:47:16.905Z,5.10
2022-11-22T00:49:43.722Z,4.47
2022-11-22T00:52:10.528Z,4.93
2022-11-22T00:54:37.589Z,5.00
2022-11-22T00:57:04.432Z,5.10
2022-11-22T00:59:31.477Z,5.00
2022-11-22T01:01:58.473Z,4.80
2022-11-22T01:04:25.344Z,5.20
2022-11-22T01:06:52.111Z,4.57
2022-11-22T01:09:21.743Z,5.03
2022-11-22T01:11:52.564Z,5.10
2022-11-22T01:14:19.734Z,4.60
2022-11-22T01:16:47.605Z,4.30
2022-11-22T01:19:14.856Z,4.80
2022-11-22T01:21:41.726Z,4.27
2022-11-22T01:24:08.775Z,4.53
2022-11-22T01:26:35.799Z,4.10
2022-11-22T01:29:02.788Z,4.40
2022-11-22T01:31:30.193Z,3.97
2022-11-22T01:34:00.212Z,3.30
2022-11-22T01:36:27.886Z,3.50
2022-11-22T01:38:55.134Z,3.57
2022-11-22T01:41:22.869Z,4.77
2022-11-22T01:43:49.989Z,7.67
2022-11-22T01:46:37.684Z,7.23
2022-11-22T01:49:14.170Z,6.53
2022-11-22T01:51:45.296Z,5.80
2022-11-22T01:54:18.947Z,3.70
2022-11-22T01:56:50.412Z,4.37
2022-11-22T01:59:21.780Z,3.90
2022-11-22T02:01:48.854Z,3.40
2022-11-22T02:04:18.562Z,3.73
2022-11-22T02:06:56.471Z,3.33
2022-11-22T02:09:23.424Z,3.47
2022-11-22T02:11:53.944Z,3.60
2022-11-22T02:14:25.039Z,3.20
2022-11-22T02:16:51.773Z,3.37
2022-11-22T02:19:31.618Z,3.50
2022-11-22T02:22:06.604Z,3.00
2022-11-22T02:25:02.563Z,3.23
2022-11-22T02:27:29.582Z,3.47
2022-11-22T02:29:56.369Z,3.20
2022-11-22T02:32:23.162Z,3.07
2022-11-22T02:34:51.418Z,3.50
2022-11-22T02:37:29.635Z,3.20
2022-11-22T02:40:02.803Z,3.30
2022-11-22T02:42:31.138Z,3.40
2022-11-22T02:44:58.064Z,3.37
2022-11-22T02:47:24.818Z,3.50
2022-11-22T02:49:53.503Z,3.60
2022-11-22T02:52:20.289Z,3.50
2022-11-22T02:54:47.077Z,3.20
2022-11-22T02:57:13.937Z,3.80
2022-11-22T02:59:40.828Z,3.43
2022-11-22T03:02:07.620Z,3.40
2022-11-22T03:04:34.383Z,3.53
2022-11-22T03:07:02.148Z,3.63
2022-11-22T03:09:29.762Z,3.67
2022-11-22T03:11:56.712Z,4.53
2022-11-22T03:14:23.627Z,3.60
2022-11-22T03:16:50.765Z,3.63
2022-11-22T03:19:17.676Z,3.90
2022-11-22T03:21:45.127Z,3.63
2022-11-22T03:24:12.182Z,3.60
2022-11-22T03:26:39.349Z,3.70
2022-11-22T03:29:06.395Z,3.33
2022-11-22T03:31:33.214Z,3.70
2022-11-22T03:33:59.992Z,3.60
2022-11-22T03:36:26.779Z,3.53
2022-11-22T03:38:53.491Z,3.13
2022-11-22T03:41:20.277Z,3.50
2022-11-22T03:43:47.074Z,4.00
2022-11-22T03:46:16.075Z,3.60
2022-11-22T03:48:42.959Z,3.77
2022-11-22T03:51:09.868Z,3.83
2022-11-22T03:53:36.701Z,3.70
2022-11-22T03:56:03.907Z,3.77
2022-11-22T03:58:33.232Z,3.40
2022-11-22T04:01:00.524Z,3.77
2022-11-22T04:03:27.944Z,3.00
2022-11-22T04:05:54.814Z,3.47
2022-11-22T04:08:21.776Z,3.53
2022-11-22T04:10:49.733Z,3.30
2022-11-22T04:13:16.632Z,3.50
2022-11-22T04:15:43.407Z,3.00
2022-11-22T04:18:11.673Z,3.33
2022-11-22T04:20:57.645Z,3.27
2022-11-22T04:23:30.663Z,3.30
2022-11-22T04:26:00.434Z,3.80
2022-11-22T04:28:47.130Z,3.00
2022-11-22T04:31:32.776Z,2.97
2022-11-22T04:33:59.541Z,3.50
2022-11-22T04:36:26.281Z,3.50
2022-11-22T04:38:53.053Z,2.90
2022-11-22T04:41:19.819Z,2.97
2022-11-22T04:44:05.346Z,3.30
2022-11-22T04:46:32.252Z,2.53
2022-11-22T04:48:59.075Z,3.80
2022-11-22T04:51:44.258Z,3.17
2022-11-22T04:54:11.049Z,3.33
2022-11-22T04:56:37.854Z,4.00
2022-11-22T04:59:04.704Z,3.43
2022-11-22T05:01:31.802Z,3.70
2022-11-22T05:03:58.728Z,3.00
2022-11-22T05:06:25.482Z,3.07
2022-11-22T05:08:52.336Z,3.07
2022-11-22T05:11:19.168Z,3.57
2022-11-22T05:13:45.991Z,3.13
2022-11-22T05:16:14.943Z,2.87
2022-11-22T05:18:42.420Z,2.63
2022-11-22T05:21:12.828Z,2.87
2022-11-22T05:23:57.503Z,2.83
2022-11-22T05:26:33.059Z,2.53
2022-11-22T05:29:07.516Z,2.40
2022-11-22T05:31:36.578Z,2.30
2022-11-22T05:34:04.014Z,2.60
2022-11-22T05:36:33.182Z,2.33
2022-11-22T05:39:00.108Z,2.10
2022-11-22T05:41:26.913Z,2.30
2022-11-22T05:43:57.631Z,2.30
2022-11-22T05:46:29.945Z,1.90
2022-11-22T05:48:58.038Z,2.23
2022-11-22T05:51:33.679Z,2.20
2022-11-22T05:54:01.871Z,2.40
2022-11-22T05:56:28.824Z,2.37
2022-11-22T05:58:55.722Z,2.53
2022-11-22T06:01:25.430Z,2.10
2022-11-22T06:03:52.693Z,2.27
2022-11-22T06:06:19.819Z,2.20
2022-11-22T06:08:48.653Z,2.20
2022-11-22T06:11:22.636Z,2.23
2022-11-22T06:13:52.068Z,2.77
2022-11-22T06:16:19.297Z,2.20
2022-11-22T06:18:46.469Z,2.30
2022-11-22T06:21:19.487Z,2.57
2022-11-22T06:23:46.229Z,2.40
2022-11-22T06:26:15.281Z,2.10
2022-11-22T06:28:42.718Z,2.30
2022-11-22T06:31:14.107Z,2.10
2022-11-22T06:33:41.896Z,2.37
2022-11-22T06:36:14.692Z,2.33
2022-11-22T06:38:42.755Z,2.47
2022-11-22T06:41:11.966Z,1.80
2022-11-22T06:43:46.728Z,2.30
2022-11-22T06:46:15.503Z,2.30
2022-11-22T06:48:43.300Z,2.67
2022-11-22T06:51:12.887Z,2.33
2022-11-22T06:53:47.413Z,2.37
2022-11-22T06:56:23.619Z,2.43
2022-11-22T06:58:54.114Z,2.17
2022-11-22T07:01:24.292Z,2.37
2022-11-22T07:03:51.946Z,2.40
2022-11-22T07:06:19.585Z,2.03
2022-11-22T07:08:47.846Z,2.13
2022-11-22T07:11:17.325Z,2.47
2022-11-22T07:13:44.446Z,1.93
2022-11-22T07:16:13.304Z,2.30
2022-11-22T07:18:40.710Z,2.30
2022-11-22T07:21:19.379Z,2.30
2022-11-22T07:23:47.965Z,2.30
2022-11-22T07:26:16.764Z,1.90
2022-11-22T07:28:44.552Z,2.07
2022-11-22T07:31:13.633Z,2.00
2022-11-22T07:33:44.046Z,1.90
2022-11-22T07:36:21.639Z,2.30
2022-11-22T07:38:49.300Z,2.20
2022-11-22T07:41:17.673Z,2.23
2022-11-22T07:43:45.967Z,2.30
2022-11-22T07:46:29.978Z,2.10
2022-11-22T07:48:57.978Z,2.27
2022-11-22T07:51:25.295Z,2.07
2022-11-22T07:53:52.390Z,2.03
2022-11-22T07:56:19.442Z,2.40
2022-11-22T07:58:46.353Z,1.63
2022-11-22T08:01:16.645Z,1.93
2022-11-22T08:03:44.688Z,2.23
2022-11-22T08:06:13.104Z,1.83
2022-11-22T08:08:40.488Z,2.20
2022-11-22T08:11:10.359Z,1.90
2022-11-22T08:13:37.361Z,1.70
2022-11-22T08:16:07.618Z,2.67
2022-11-22T08:18:35.964Z,2.10
2022-11-22T08:21:10.646Z,2.10
2022-11-22T08:23:38.662Z,1.70
2022-11-22T08:26:06.451Z,1.77
2022-11-22T08:28:44.953Z,2.00
2022-11-22T08:31:19.364Z,1.97
2022-11-22T08:33:47.696Z,1.73
2022-11-22T08:36:14.755Z,2.07
2022-11-22T08:38:42.370Z,1.90
2022-11-22T08:41:09.133Z,2.00
2022-11-22T08:43:36.091Z,2.00
2022-11-22T08:46:03.495Z,2.07
2022-11-22T08:48:31.871Z,2.00
2022-11-22T08:51:01.345Z,1.60
2022-11-22T08:53:29.964Z,1.80
2022-11-22T08:56:00.729Z,1.87
2022-11-22T08:58:29.866Z,2.43
2022-11-22T09:00:57.150Z,2.00
2022-11-22T09:03:24.055Z,2.13
2022-11-22T09:08:40.448Z,1.73
2022-11-22T09:11:16.497Z,1.80
2022-11-22T09:13:44.261Z,2.00
2022-11-22T09:16:16.223Z,2.03
2022-11-22T09:18:43.437Z,2.00
2022-11-22T09:21:15.967Z,1.90
2022-11-22T09:23:46.685Z,2.03
2022-11-22T09:26:26.973Z,2.10
2022-11-22T09:28:53.954Z,2.20
2022-11-22T09:31:22.899Z,1.97
2022-11-22T09:33:50.575Z,2.43
2022-11-22T09:36:23.525Z,2.17
2022-11-22T09:38:51.306Z,2.07
2022-11-22T09:41:43.039Z,2.20
2022-11-22T09:44:54.237Z,2.13
2022-11-22T09:47:41.857Z,2.17
2022-11-22T09:50:29.776Z,2.10
2022-11-22T09:53:05.038Z,1.83
2022-11-22T09:55:46.425Z,2.40
2022-11-22T09:58:32.262Z,2.20
2022-11-22T10:01:10.933Z,2.17
2022-11-22T10:03:44.249Z,1.70
2022-11-22T10:06:41.925Z,1.93
2022-11-22T10:09:21.686Z,2.40
2022-11-22T10:11:57.678Z,1.97
2022-11-22T10:14:48.022Z,2.37
2022-11-22T10:17:35.444Z,2.17
2022-11-22T10:20:16.386Z,2.07
2022-11-22T10:22:44.156Z,2.43
2022-11-22T10:25:42.838Z,1.93
2022-11-22T10:28:17.093Z,1.73
2022-11-22T10:31:11.373Z,2.43
2022-11-22T10:33:56.447Z,1.53
2022-11-22T10:36:36.931Z,2.20
2022-11-22T10:39:17.563Z,2.00
2022-11-22T10:41:50.680Z,1.73
2022-11-22T10:44:36.409Z,1.97
2022-11-22T10:47:23.465Z,1.83
2022-11-22T10:50:02.317Z,1.33
2022-11-22T10:53:07.642Z,1.80
2022-11-22T10:55:52.757Z,1.77
2022-11-22T10:58:57.887Z,1.93
2022-11-22T11:02:12.055Z,1.83
2022-11-22T11:04:41.984Z,1.80
2022-11-22T11:07:17.093Z,1.40
2022-11-22T11:12:58.924Z,1.77
2022-11-22T11:15:34.250Z,1.83
2022-11-22T11:18:12.315Z,1.30
2022-11-22T11:20:42.602Z,1.50
2022-11-22T11:23:15.466Z,1.50
2022-11-22T11:25:47.680Z,2.00
2022-11-22T11:28:24.434Z,1.50
2022-11-22T11:31:11.564Z,1.90
2022-11-22T11:33:40.453Z,1.50
2022-11-22T11:36:21.095Z,1.70
2022-11-22T11:38:53.377Z,1.70
2022-11-22T11:41:33.918Z,1.63
2022-11-22T11:44:06.074Z,1.43
2022-11-22T11:46:41.628Z,1.70
2022-11-22T11:49:16.734Z,1.40
2022-11-22T11:52:20.046Z,1.23
2022-11-22T11:54:49.385Z,1.30
2022-11-22T11:57:27.756Z,1.47
2022-11-22T11:59:56.293Z,1.60
2022-11-22T12:02:36.067Z,1.53
2022-11-22T12:05:06.137Z,0.90
2022-11-22T12:07:36.403Z,1.57
2022-11-22T12:10:38.250Z,1.47
2022-11-22T12:13:24.685Z,1.40
2022-11-22T12:16:00.810Z,1.10
2022-11-22T12:19:03.706Z,1.20
2022-11-22T12:21:42.051Z,1.20
2022-11-22T12:25:02.866Z,1.30
2022-11-22T12:27:24.159Z,1.43
2022-11-22T12:29:57.817Z,1.00
2022-11-22T12:32:34.763Z,1.13
2022-11-22T12:35:16.585Z,1.37
2022-11-22T12:37:56.087Z,1.10
2022-11-22T12:40:36.543Z,1.30
2022-11-22T12:43:14.845Z,0.90
2022-11-22T12:45:52.254Z,0.90
2022-11-22T12:48:48.391Z,1.50
2022-11-22T12:51:28.419Z,1.10
2022-11-22T12:54:03.084Z,1.03
2022-11-22T12:57:08.293Z,1.27
2022-11-22T12:59:48.056Z,1.10
2022-11-22T13:02:40.592Z,1.33
2022-11-22T13:05:19.946Z,0.90
2022-11-22T13:08:14.418Z,1.30
2022-11-22T13:10:45.057Z,1.10
2022-11-22T13:13:22.680Z,0.90
2022-11-22T13:15:52.053Z,1.33
2022-11-22T13:18:29.779Z,1.00
2022-11-22T13:21:19.236Z,1.23
2022-11-22T13:23:57.210Z,1.50
2022-11-22T13:26:48.219Z,1.60
2022-11-22T13:29:31.053Z,1.10
2022-11-22T13:32:11.652Z,1.23
2022-11-22T13:34:42.105Z,1.40
2022-11-22T13:37:18.508Z,1.50
2022-11-22T13:39:48.848Z,1.00
2022-11-22T13:42:20.348Z,1.20
2022-11-22T13:44:56.427Z,1.17
2022-11-22T13:47:23.604Z,1.10
2022-11-22T13:49:56.727Z,1.20
2022-11-22T13:52:25.865Z,1.10
2022-11-22T13:54:58.732Z,1.00
2022-11-22T13:57:44.858Z,1.13
2022-11-22T14:00:14.615Z,1.13
2022-11-22T14:02:52.130Z,1.03
2022-11-22T14:05:20.442Z,1.03
2022-11-22T14:07:56.112Z,1.37
2022-11-22T14:10:38.826Z,1.23
2022-11-22T14:13:24.242Z,1.03
2022-11-22T14:16:08.114Z,1.27
2022-11-22T14:18:48.229Z,1.33
2022-11-22T14:21:40.375Z,1.27
2022-11-22T14:24:45.342Z,1.20
2022-11-22T14:27:30.707Z,1.53
2022-11-22T14:30:00.299Z,1.47
2022-11-22T14:33:13.415Z,1.27
2022-11-22T14:36:06.403Z,1.10
2022-11-22T14:38:35.577Z,0.90
2022-11-22T14:41:27.762Z,1.70
2022-11-22T14:44:27.973Z,0.97
2022-11-22T14:47:02.816Z,1.20
2022-11-22T14:49:44.921Z,0.90
2022-11-22T14:52:22.813Z,0.97
2022-11-22T14:54:59.338Z,1.07
2022-11-22T14:57:29.144Z,1.03
2022-11-22T15:00:17.867Z,1.10
2022-11-22T15:02:53.990Z,1.00
2022-11-22T15:09:17.051Z,1.27
2022-11-22T15:09:46.631Z,0.87
2022-11-22T15:12:31.314Z,1.00
2022-11-22T15:59:00.855Z,1.77
2022-11-22T16:01:27.913Z,1.17
2022-11-22T16:03:58.032Z,1.43
2022-11-22T16:06:29.332Z,8.13
2022-11-22T16:09:06.466Z,6.90
2022-11-22T16:11:36.902Z,5.80
2022-11-22T16:14:04.549Z,3.57
2022-11-22T16:16:34.436Z,2.90
2022-11-22T16:19:22.769Z,2.03
2022-11-22T16:22:03.196Z,1.40
2022-11-22T16:24:32.043Z,1.80
2022-11-22T16:27:11.833Z,1.80
2022-11-22T16:29:39.011Z,1.27
2022-11-22T16:32:16.513Z,1.60
2022-11-22T16:34:44.260Z,1.37
2022-11-22T16:37:37.893Z,2.10
2022-11-22T16:40:07.408Z,1.50
2022-11-22T16:42:35.888Z,1.80
2022-11-22T16:45:05.843Z,1.33
2022-11-22T16:47:33.097Z,1.80
2022-11-22T16:50:00.190Z,1.80
2022-11-22T16:52:29.885Z,1.67
2022-11-22T16:54:56.807Z,1.60
2022-11-22T16:57:23.703Z,1.87
2022-11-22T16:59:50.664Z,1.57
2022-11-22T17:02:18.236Z,2.10
2022-11-22T17:04:46.665Z,1.63
2022-11-22T17:07:14.927Z,1.60
2022-11-22T17:09:42.338Z,1.60
2022-11-22T17:12:23.103Z,2.00
2022-11-22T17:14:51.079Z,1.80
2022-11-22T17:17:19.331Z,1.70
2022-11-22T17:19:53.168Z,1.60
2022-11-22T17:22:21.418Z,1.67
2022-11-22T17:24:48.774Z,3.40
2022-11-22T17:27:15.807Z,1.57
2022-11-22T17:29:51.196Z,1.60
2022-11-22T17:32:19.133Z,1.83
2022-11-22T17:34:46.114Z,1.60
2022-11-22T17:37:13.901Z,1.77
2022-11-22T17:39:41.268Z,1.73
2022-11-22T17:42:08.444Z,2.03
2022-11-22T17:44:35.350Z,1.90
2022-11-22T17:47:05.091Z,1.77
2022-11-22T17:49:32.327Z,2.07
2022-11-22T17:52:00.963Z,2.17
2022-11-22T17:54:28.626Z,2.03
2022-11-22T17:56:55.630Z,2.00
2022-11-22T17:59:22.626Z,2.17
2022-11-22T18:01:49.589Z,1.63
2022-11-22T18:04:17.709Z,2.20
2022-11-22T18:06:45.239Z,1.70
2022-11-22T18:09:12.316Z,1.73
2022-11-22T18:11:39.320Z,1.80
2022-11-22T18:14:06.549Z,1.80
2022-11-22T18:16:33.528Z,1.60
2022-11-22T18:19:00.724Z,2.10
2022-11-22T18:21:29.768Z,1.77
2022-11-22T18:23:58.411Z,1.90
2022-11-22T18:26:41.530Z,2.00
2022-11-22T18:29:41.244Z,1.90
2022-11-22T18:31:58.162Z,2.10
2022-11-22T18:34:25.823Z,2.07
2022-11-22T18:37:00.458Z,1.80
2022-11-22T18:39:31.208Z,2.13
2022-11-22T18:44:49.420Z,1.90
2022-11-22T18:47:21.830Z,2.10
2022-11-22T18:49:48.547Z,2.00
2022-11-22T18:52:17.903Z,1.90
2022-11-22T18:54:55.476Z,2.00
2022-11-22T18:57:25.515Z,1.70
2022-11-22T18:59:57.637Z,1.90
2022-11-22T19:02:31.580Z,1.90
2022-11-22T19:05:04.360Z,1.60
2022-11-22T19:07:31.290Z,1.90
2022-11-22T19:09:59.303Z,1.50
2022-11-22T19:12:34.239Z,1.87
2022-11-22T19:15:01.425Z,1.33
2022-11-22T19:17:28.448Z,1.40
2022-11-22T19:20:04.680Z,1.37
2022-11-22T19:22:31.482Z,1.80
2022-11-22T19:25:01.279Z,1.60
2022-11-22T19:27:28.042Z,1.13
2022-11-22T19:29:58.041Z,1.80
2022-11-22T19:32:25.243Z,1.40
2022-11-22T19:34:55.079Z,1.50
2022-11-22T19:37:23.739Z,1.30
2022-11-22T19:39:50.969Z,1.43
2022-11-22T19:42:18.109Z,1.67
2022-11-22T19:44:47.529Z,1.47
2022-11-22T19:47:14.349Z,1.53
2022-11-22T19:49:43.809Z,1.20
2022-11-22T19:52:10.594Z,1.53
2022-11-22T19:54:39.917Z,1.60
2022-11-22T19:57:06.838Z,1.43
2022-11-22T19:59:34.775Z,1.50
2022-11-22T20:02:10.332Z,1.37
2022-11-22T20:04:37.501Z,1.40
2022-11-22T20:07:04.795Z,1.40
2022-11-22T20:09:31.746Z,1.40
2022-11-22T20:11:58.779Z,1.30
2022-11-22T20:14:25.651Z,1.37
2022-11-22T20:16:55.600Z,1.20
2022-11-22T20:19:22.429Z,1.13
2022-11-22T20:22:00.222Z,1.00
2022-11-22T20:24:30.633Z,1.03
2022-11-22T20:27:05.221Z,1.30
2022-11-22T20:29:36.860Z,1.50
2022-11-22T20:32:05.645Z,1.30
2022-11-22T20:34:36.820Z,1.30
2022-11-22T20:37:07.050Z,1.20
2022-11-22T20:39:37.068Z,1.77
2022-11-22T20:42:32.404Z,1.20
2022-11-22T20:44:55.075Z,1.63
2022-11-22T20:47:22.040Z,1.40
2022-11-22T20:49:51.359Z,1.20
2022-11-22T20:52:18.379Z,1.20
2022-11-22T20:55:00.386Z,1.10
2022-11-22T20:57:32.003Z,1.50
2022-11-22T21:00:11.704Z,1.13
2022-11-22T21:02:48.404Z,1.03
2022-11-22T21:05:15.385Z,0.90
2022-11-22T21:07:44.972Z,1.33
2022-11-22T21:10:11.918Z,1.20
2022-11-22T21:12:42.352Z,1.30
2022-11-22T21:15:09.922Z,1.10
2022-11-22T21:17:50.156Z,1.30
2022-11-22T21:20:25.891Z,1.30
2022-11-22T21:22:54.235Z,1.00
2022-11-22T21:25:21.580Z,0.90
2022-11-22T21:27:50.401Z,1.23
2022-11-22T21:30:18.728Z,1.20
2022-11-22T21:32:45.653Z,1.17
2022-11-22T21:35:13.135Z,1.00
2022-11-22T21:37:41.758Z,1.40
2022-11-22T21:40:10.135Z,0.83
2022-11-22T21:42:37.686Z,1.30
2022-11-22T21:45:05.326Z,1.13
2022-11-22T21:47:32.278Z,1.03
2022-11-22T21:49:59.039Z,1.17
2022-11-22T21:52:25.802Z,0.90
2022-11-22T21:54:54.429Z,1.20
2022-11-22T21:57:21.385Z,1.20
2022-11-22T21:59:48.288Z,1.10
2022-11-22T22:02:15.286Z,0.93
2022-11-22T22:04:42.043Z,1.10
2022-11-22T22:07:23.633Z,1.10
2022-11-22T22:09:55.663Z,1.10
2022-11-22T22:12:22.412Z,1.07
2022-11-22T22:14:49.392Z,1.20
2022-11-22T22:17:16.280Z,1.00
2022-11-22T22:19:44.693Z,1.20
2022-11-22T22:22:11.425Z,1.20
2022-11-22T22:24:38.177Z,1.00
2022-11-22T22:27:05.166Z,1.10
2022-11-22T22:29:32.483Z,0.90
2022-11-22T22:31:59.707Z,0.80
2022-11-22T22:34:26.698Z,0.90
2022-11-22T22:36:53.506Z,0.97
2022-11-22T22:39:20.605Z,1.20
2022-11-22T22:41:47.351Z,0.80
2022-11-22T22:44:14.128Z,1.23
2022-11-22T22:46:43.581Z,0.90
2022-11-22T22:49:10.369Z,1.10
2022-11-22T22:51:37.085Z,0.90
2022-11-22T22:54:04.102Z,0.90
2022-11-22T22:56:34.680Z,0.83
2022-11-22T22:59:01.730Z,0.90
2022-11-22T23:01:30.580Z,0.73
2022-11-22T23:03:59.514Z,0.80
2022-11-22T23:06:28.865Z,1.10
2022-11-22T23:08:56.305Z,0.90
2022-11-22T23:11:47.584Z,1.00
2022-11-22T23:14:16.962Z,1.40
2022-11-22T23:16:43.794Z,0.90
2022-11-22T23:19:10.949Z,1.00
2022-11-22T23:21:38.130Z,1.00
2022-11-22T23:24:05.516Z,0.80
2022-11-22T23:26:32.634Z,0.80
2022-11-22T23:29:00.421Z,0.97
2022-11-22T23:31:27.546Z,0.87
2022-11-22T23:33:54.757Z,0.70
2022-11-22T23:36:22.885Z,0.77
2022-11-22T23:38:49.614Z,0.70
2022-11-22T23:41:19.896Z,1.13
2022-11-22T23:43:47.960Z,0.73
2022-11-22T23:46:18.303Z,1.20
2022-11-22T23:48:46.497Z,0.83
2022-11-22T23:51:14.305Z,0.90
2022-11-22T23:53:41.388Z,0.70
2022-11-22T23:56:10.199Z,0.80
2022-11-22T23:58:37.691Z,1.00
